Aviation Digital Data Service (ADDS)

Output produced by METARs form (1538 UTC 03 July 2015)
found at http://aviationweather.gov/adds/metars/
 
KBFD 031133Z 0312/0412 VRB03KT P6SM SCT025 
     FM031500 12005KT P6SM SCT050 
     FM040000 13005KT P6SM OVC050 
     FM040600 14005KT 5SM -RA BR OVC010